createdAt,value
2019-03-06T00:02:18.773Z,4.80
2019-03-06T00:04:48.071Z,4.70
2019-03-06T00:07:18.380Z,4.97
2019-03-06T00:09:47.219Z,5.03
2019-03-06T00:12:16.569Z,4.70
2019-03-06T00:14:46.964Z,5.33
2019-03-06T00:17:16.231Z,5.30
2019-03-06T00:19:46.445Z,5.23
2019-03-06T00:22:17.134Z,5.43
2019-03-06T00:24:47.432Z,5.30
2019-03-06T00:27:16.684Z,5.60
2019-03-06T00:29:46.983Z,5.60
2019-03-06T00:32:16.316Z,5.77
2019-03-06T00:34:45.651Z,6.13
2019-03-06T00:37:15.951Z,6.93
2019-03-06T00:39:47.881Z,6.57
2019-03-06T00:42:18.094Z,7.23
2019-03-06T00:44:49.676Z,6.57
2019-03-06T00:47:18.390Z,6.77
2019-03-06T00:49:49.161Z,7.10
2019-03-06T00:52:19.434Z,7.60
2019-03-06T00:54:48.742Z,7.03
2019-03-06T00:57:19.089Z,7.70
2019-03-06T00:59:49.576Z,7.40
2019-03-06T01:02:19.822Z,8.30
2019-03-06T01:04:50.095Z,7.77
2019-03-06T01:07:20.373Z,8.40
2019-03-06T01:09:49.615Z,8.20
2019-03-06T01:12:19.823Z,7.87
2019-03-06T01:14:49.218Z,8.33
2019-03-06T01:17:19.577Z,9.13
2019-03-06T01:19:54.798Z,8.80
2019-03-06T01:22:24.177Z,8.40
2019-03-06T01:24:54.248Z,9.03
2019-03-06T01:27:23.534Z,8.27
2019-03-06T01:29:52.896Z,8.33
2019-03-06T01:32:23.509Z,9.00
2019-03-06T01:34:59.181Z,9.63
2019-03-06T01:37:31.024Z,10.20
2019-03-06T01:40:01.963Z,10.73
2019-03-06T01:42:32.875Z,11.00
2019-03-06T01:45:03.283Z,11.03
2019-03-06T01:47:32.618Z,11.70
2019-03-06T01:50:01.936Z,12.17
2019-03-06T01:52:31.209Z,11.97
2019-03-06T01:55:01.748Z,11.50
2019-03-06T01:57:32.072Z,11.90
2019-03-06T02:00:02.287Z,11.20
2019-03-06T02:02:35.889Z,12.83
2019-03-06T02:05:07.239Z,12.10
2019-03-06T02:07:36.811Z,11.70
2019-03-06T02:10:08.728Z,11.97
2019-03-06T02:12:39.564Z,11.80
2019-03-06T02:15:13.175Z,12.90
2019-03-06T02:17:43.468Z,12.00
2019-03-06T02:20:17.644Z,12.03
2019-03-06T02:22:47.357Z,11.77
2019-03-06T02:25:17.712Z,12.47
2019-03-06T02:27:48.147Z,12.30
2019-03-06T02:30:25.423Z,11.77
2019-03-06T02:32:58.547Z,10.67
2019-03-06T02:35:27.013Z,11.00
2019-03-06T02:37:56.520Z,9.97
2019-03-06T02:40:25.831Z,9.93
2019-03-06T02:42:55.739Z,9.80
2019-03-06T02:45:26.069Z,9.13
2019-03-06T02:47:55.322Z,9.53
2019-03-06T02:50:24.888Z,10.17
2019-03-06T02:52:55.445Z,10.00
2019-03-06T02:55:24.761Z,9.00
2019-03-06T02:58:13.973Z,9.53
2019-03-06T03:00:47.439Z,9.63
2019-03-06T03:03:34.388Z,9.50
2019-03-06T03:06:06.292Z,9.50
2019-03-06T03:08:38.759Z,10.43
2019-03-06T03:11:08.010Z,9.37
2019-03-06T03:13:38.223Z,9.57
2019-03-06T03:16:08.496Z,9.27
2019-03-06T03:18:38.761Z,9.03
2019-03-06T03:21:09.140Z,8.40
2019-03-06T03:23:39.741Z,9.07
2019-03-06T03:26:10.075Z,8.10
2019-03-06T03:28:39.470Z,8.17
2019-03-06T03:31:08.907Z,8.23
2019-03-06T03:33:38.237Z,9.27
2019-03-06T03:36:07.533Z,8.53
2019-03-06T03:38:37.834Z,9.63
2019-03-06T03:41:08.173Z,9.30
2019-03-06T03:43:38.667Z,8.97
2019-03-06T03:46:07.947Z,8.87
2019-03-06T03:48:37.312Z,9.80
2019-03-06T03:51:06.567Z,9.23
2019-03-06T03:53:35.883Z,9.80
2019-03-06T03:56:05.391Z,10.20
2019-03-06T03:58:36.815Z,10.77
2019-03-06T04:01:06.126Z,11.07
2019-03-06T04:03:36.432Z,11.33
2019-03-06T04:06:05.805Z,11.43
2019-03-06T04:08:36.275Z,10.20
2019-03-06T04:11:05.590Z,10.80
2019-03-06T04:13:34.893Z,10.30
2019-03-06T04:16:05.256Z,10.37
2019-03-06T04:18:34.576Z,11.17
2019-03-06T04:21:05.578Z,10.73
2019-03-06T04:23:37.232Z,10.40
2019-03-06T04:26:06.571Z,8.73
2019-03-06T04:28:36.847Z,9.63
2019-03-06T04:31:06.169Z,9.17
2019-03-06T04:33:36.464Z,9.57
2019-03-06T04:36:06.704Z,8.90
2019-03-06T04:38:36.974Z,8.60
2019-03-06T04:41:07.274Z,9.77
2019-03-06T04:43:36.813Z,8.97
2019-03-06T04:46:07.052Z,9.37
2019-03-06T04:48:35.792Z,9.23
2019-03-06T04:51:06.062Z,9.87
2019-03-06T04:53:34.834Z,9.90
2019-03-06T04:56:05.465Z,10.57
2019-03-06T04:58:35.765Z,10.67
2019-03-06T05:01:06.112Z,12.33
2019-03-06T05:03:38.230Z,11.67
2019-03-06T05:06:08.499Z,13.23
2019-03-06T05:08:38.840Z,13.27
2019-03-06T05:11:09.127Z,13.13
2019-03-06T05:13:39.966Z,12.93
2019-03-06T05:16:10.262Z,12.93
2019-03-06T05:18:40.664Z,13.33
2019-03-06T05:21:11.759Z,13.93
2019-03-06T05:23:42.035Z,13.37
2019-03-06T05:26:11.343Z,14.43
2019-03-06T05:28:40.619Z,13.20
2019-03-06T05:31:11.687Z,12.83
2019-03-06T05:33:41.904Z,14.40
2019-03-06T05:36:22.602Z,13.63
2019-03-06T05:39:07.473Z,13.97
2019-03-06T05:41:37.688Z,13.77
2019-03-06T05:44:07.369Z,14.63
2019-03-06T05:46:37.588Z,13.57
2019-03-06T05:49:07.864Z,14.47
2019-03-06T05:51:37.208Z,15.47
2019-03-06T05:54:06.505Z,15.73
2019-03-06T05:56:36.751Z,15.47
2019-03-06T05:59:06.058Z,15.23
2019-03-06T06:01:36.432Z,15.07
2019-03-06T06:04:05.797Z,15.77
2019-03-06T06:06:36.119Z,16.03
2019-03-06T06:09:07.178Z,15.63
2019-03-06T06:11:37.477Z,16.63
2019-03-06T06:14:06.762Z,16.50
2019-03-06T06:16:37.141Z,17.47
2019-03-06T06:19:06.462Z,17.23
2019-03-06T06:21:47.180Z,16.00
2019-03-06T06:24:17.395Z,18.40
2019-03-06T06:26:47.665Z,20.03
2019-03-06T06:29:17.903Z,19.17
2019-03-06T06:31:47.228Z,19.90
2019-03-06T06:34:16.588Z,18.73
2019-03-06T06:36:46.843Z,18.37
2019-03-06T06:39:17.662Z,18.87
2019-03-06T06:41:48.436Z,18.57
2019-03-06T06:44:17.704Z,19.73
2019-03-06T06:46:47.985Z,19.13
2019-03-06T06:49:17.315Z,17.83
2019-03-06T06:51:56.722Z,18.83
2019-03-06T06:54:32.976Z,18.80
2019-03-06T06:57:19.282Z,19.63
2019-03-06T06:59:55.442Z,18.17
2019-03-06T07:02:54.101Z,19.63
2019-03-06T07:05:36.621Z,16.07
2019-03-06T07:08:23.604Z,18.83
2019-03-06T07:10:55.642Z,17.70
2019-03-06T07:13:29.329Z,16.97
2019-03-06T07:16:10.592Z,18.53
2019-03-06T07:18:44.879Z,15.70
2019-03-06T07:21:17.774Z,19.10
2019-03-06T07:23:49.967Z,17.37
2019-03-06T07:26:35.725Z,17.10
2019-03-06T07:29:12.561Z,16.63
2019-03-06T07:31:46.393Z,15.77
2019-03-06T07:34:22.883Z,12.30
2019-03-06T07:36:54.570Z,15.33
2019-03-06T07:39:25.781Z,16.10
2019-03-06T07:41:58.217Z,13.07
2019-03-06T07:44:30.722Z,15.13
2019-03-06T07:47:11.411Z,15.83
2019-03-06T07:49:53.782Z,14.50
2019-03-06T07:52:24.232Z,14.33
2019-03-06T07:54:56.172Z,14.10
2019-03-06T07:57:28.274Z,14.13
2019-03-06T07:59:57.695Z,12.83
2019-03-06T08:02:38.591Z,12.03
2019-03-06T08:05:11.562Z,11.90
2019-03-06T08:07:41.910Z,11.27
2019-03-06T08:10:18.768Z,11.10
2019-03-06T08:12:53.781Z,9.83
2019-03-06T08:15:31.336Z,6.87
2019-03-06T08:18:03.247Z,7.20
2019-03-06T08:20:35.120Z,6.63
2019-03-06T08:23:25.710Z,7.83
2019-03-06T08:25:55.025Z,7.83
2019-03-06T08:28:25.776Z,7.93
2019-03-06T08:31:06.541Z,7.30
2019-03-06T08:33:35.892Z,9.13
2019-03-06T08:36:06.187Z,8.27
2019-03-06T08:38:36.733Z,7.40
2019-03-06T08:41:06.854Z,7.83
2019-03-06T08:43:38.505Z,7.67
2019-03-06T08:46:12.909Z,7.90
2019-03-06T08:48:43.921Z,7.37
2019-03-06T08:51:14.801Z,7.80
2019-03-06T08:53:45.972Z,7.10
2019-03-06T08:56:22.896Z,8.37
2019-03-06T08:59:00.522Z,9.20
2019-03-06T09:01:35.567Z,8.50
2019-03-06T09:04:08.883Z,7.17
2019-03-06T09:06:40.172Z,9.07
2019-03-06T09:09:28.052Z,10.67
2019-03-06T09:12:16.632Z,11.10
2019-03-06T09:15:02.180Z,12.27
2019-03-06T09:17:33.191Z,10.67
2019-03-06T09:20:06.926Z,12.63
2019-03-06T09:22:54.922Z,12.37
2019-03-06T09:25:35.696Z,11.97
2019-03-06T09:28:18.365Z,12.90
2019-03-06T09:30:54.866Z,13.40
2019-03-06T09:33:38.380Z,12.17
2019-03-06T09:36:15.910Z,13.23
2019-03-06T09:38:50.831Z,12.37
2019-03-06T09:41:37.838Z,13.80
2019-03-06T09:44:21.426Z,13.80
2019-03-06T09:46:55.181Z,13.63
2019-03-06T09:49:27.119Z,13.37
2019-03-06T09:52:02.057Z,13.17
2019-03-06T09:54:49.325Z,11.93
2019-03-06T09:57:21.328Z,13.97
2019-03-06T09:59:59.215Z,13.60
2019-03-06T10:02:39.773Z,12.63
2019-03-06T10:05:25.840Z,10.43
2019-03-06T10:07:57.773Z,13.23
2019-03-06T10:10:32.824Z,11.97
2019-03-06T10:13:03.705Z,11.03
2019-03-06T10:15:44.553Z,9.90
2019-03-06T10:18:30.770Z,9.90
2019-03-06T10:21:04.879Z,9.93
2019-03-06T10:23:35.215Z,10.33
2019-03-06T10:26:05.590Z,9.67
2019-03-06T10:28:36.612Z,10.20
2019-03-06T10:31:07.316Z,9.73
2019-03-06T10:33:39.483Z,9.93
2019-03-06T10:36:09.244Z,8.70
2019-03-06T10:38:40.007Z,9.53
2019-03-06T10:41:11.241Z,8.10
2019-03-06T10:43:48.855Z,9.10
2019-03-06T10:46:12.560Z,7.80
2019-03-06T10:48:42.824Z,8.40
2019-03-06T10:51:15.377Z,7.70
2019-03-06T10:53:45.645Z,7.00
2019-03-06T10:56:14.417Z,7.93
2019-03-06T10:58:43.944Z,6.17
2019-03-06T11:01:14.611Z,6.83
2019-03-06T11:03:49.302Z,6.67
2019-03-06T11:06:19.799Z,6.80
2019-03-06T11:08:50.416Z,5.67
2019-03-06T11:11:20.040Z,5.70
2019-03-06T11:13:51.124Z,5.77
2019-03-06T11:16:20.430Z,5.10
2019-03-06T11:18:50.958Z,5.90
2019-03-06T11:21:22.332Z,5.93
2019-03-06T11:23:54.564Z,4.97
2019-03-06T11:26:24.883Z,5.43
2019-03-06T11:28:55.310Z,5.20
2019-03-06T11:31:25.652Z,5.40
2019-03-06T11:33:56.492Z,5.23
2019-03-06T11:36:25.831Z,5.30
2019-03-06T11:38:56.904Z,5.63
2019-03-06T11:41:28.016Z,4.83
2019-03-06T11:43:59.372Z,5.23
2019-03-06T11:46:29.610Z,5.23
2019-03-06T11:49:00.688Z,5.17
2019-03-06T11:51:29.960Z,4.77
2019-03-06T11:54:00.265Z,5.00
2019-03-06T11:56:29.851Z,4.63
2019-03-06T11:59:01.586Z,4.93
2019-03-06T12:01:34.480Z,3.73
2019-03-06T12:04:04.759Z,4.73
2019-03-06T12:06:34.191Z,4.50
2019-03-06T12:09:03.911Z,4.13
2019-03-06T12:11:33.330Z,4.20
2019-03-06T12:14:03.597Z,3.90
2019-03-06T12:16:41.649Z,3.73
2019-03-06T12:19:05.683Z,3.70
2019-03-06T12:21:34.954Z,4.07
2019-03-06T12:24:06.706Z,3.43
2019-03-06T12:26:38.450Z,3.33
2019-03-06T12:29:09.686Z,3.80
2019-03-06T12:31:40.016Z,3.67
2019-03-06T12:34:10.389Z,3.27
2019-03-06T12:36:40.616Z,3.30
2019-03-06T12:39:11.219Z,3.27
2019-03-06T12:41:41.453Z,3.83
2019-03-06T12:44:10.883Z,3.20
2019-03-06T12:46:41.168Z,3.10
2019-03-06T12:49:10.449Z,3.20
2019-03-06T12:51:42.323Z,3.23
2019-03-06T12:54:13.490Z,2.70
2019-03-06T12:56:42.765Z,3.13
2019-03-06T12:59:13.108Z,2.73
2019-03-06T13:01:42.476Z,3.23
2019-03-06T13:04:11.906Z,2.60
2019-03-06T13:06:42.128Z,3.07
2019-03-06T13:09:18.420Z,2.80
2019-03-06T13:11:47.760Z,2.50
2019-03-06T13:14:18.248Z,2.73
2019-03-06T13:16:47.897Z,2.60
2019-03-06T13:19:17.289Z,2.27
2019-03-06T13:21:47.666Z,2.53
2019-03-06T13:24:18.246Z,2.03
2019-03-06T13:26:47.675Z,2.80
2019-03-06T13:29:18.250Z,3.27
2019-03-06T13:31:48.593Z,4.00
2019-03-06T13:34:19.034Z,4.17
2019-03-06T13:36:48.362Z,3.43
2019-03-06T13:39:20.275Z,3.37
2019-03-06T13:41:51.699Z,3.17
2019-03-06T13:44:21.969Z,3.03
2019-03-06T13:46:53.863Z,3.27
2019-03-06T13:49:22.366Z,2.80
2019-03-06T13:51:55.730Z,3.50
2019-03-06T13:54:25.015Z,3.57
2019-03-06T13:56:58.416Z,3.27
2019-03-06T13:59:28.718Z,3.33
2019-03-06T14:02:02.064Z,3.27
2019-03-06T14:04:31.343Z,3.60
2019-03-06T14:07:00.626Z,2.93
2019-03-06T14:09:30.083Z,3.60
2019-03-06T14:12:00.397Z,3.47
2019-03-06T14:14:30.034Z,3.20
2019-03-06T14:17:01.908Z,3.50
2019-03-06T14:19:31.275Z,3.43
2019-03-06T14:22:01.272Z,3.50
2019-03-06T14:24:34.027Z,3.60
2019-03-06T14:27:05.422Z,3.53
2019-03-06T14:29:34.139Z,3.33
2019-03-06T14:32:04.471Z,3.20
2019-03-06T14:34:35.342Z,3.70
2019-03-06T14:37:05.643Z,4.40
2019-03-06T14:39:35.889Z,4.67
2019-03-06T14:42:05.749Z,3.93
2019-03-06T14:44:36.148Z,4.13
2019-03-06T14:47:06.995Z,4.53
2019-03-06T14:49:36.507Z,4.47
2019-03-06T14:52:07.730Z,4.73
2019-03-06T14:54:38.512Z,4.27
2019-03-06T14:57:08.946Z,4.53
2019-03-06T14:59:38.268Z,4.40
2019-03-06T15:02:07.977Z,4.37
2019-03-06T15:04:38.194Z,3.60
2019-03-06T15:07:08.498Z,4.30
2019-03-06T15:09:37.940Z,4.70
2019-03-06T15:12:07.348Z,4.17
2019-03-06T15:14:37.888Z,4.17
2019-03-06T15:17:09.386Z,4.50
2019-03-06T15:19:39.303Z,3.90
2019-03-06T15:22:08.000Z,3.90
2019-03-06T15:24:41.546Z,4.83
2019-03-06T15:27:10.351Z,4.03
2019-03-06T15:29:40.851Z,4.53
2019-03-06T15:32:11.118Z,4.00
2019-03-06T15:34:41.966Z,3.73
2019-03-06T15:37:12.302Z,4.30
2019-03-06T15:39:45.610Z,3.23
2019-03-06T15:42:12.135Z,2.80
2019-03-06T15:44:44.232Z,3.67
2019-03-06T15:47:14.744Z,3.37
2019-03-06T15:49:47.210Z,3.87
2019-03-06T15:52:18.960Z,3.30
2019-03-06T15:54:48.747Z,3.33
2019-03-06T15:57:18.065Z,3.03
2019-03-06T15:59:48.337Z,3.17
2019-03-06T16:02:18.700Z,3.10
2019-03-06T16:04:48.154Z,3.30
2019-03-06T16:07:17.582Z,3.13
2019-03-06T16:09:47.057Z,3.33
2019-03-06T16:12:16.872Z,3.20
2019-03-06T16:14:50.452Z,3.23
2019-03-06T16:17:21.448Z,2.80
2019-03-06T16:19:50.815Z,2.73
2019-03-06T16:22:21.073Z,2.83
2019-03-06T16:24:50.701Z,2.83
2019-03-06T16:27:19.981Z,3.57
2019-03-06T16:29:50.574Z,2.80
2019-03-06T16:32:20.909Z,2.70
2019-03-06T16:34:51.789Z,2.73
2019-03-06T16:37:21.067Z,2.80
2019-03-06T16:39:53.198Z,2.33
2019-03-06T16:42:23.438Z,2.30
2019-03-06T16:44:52.852Z,2.57
2019-03-06T16:47:24.302Z,2.57
2019-03-06T16:49:56.430Z,3.20
2019-03-06T16:52:26.736Z,2.40
2019-03-06T16:54:59.054Z,2.40
2019-03-06T16:57:29.262Z,2.40
2019-03-06T16:59:58.787Z,2.23
2019-03-06T17:02:29.102Z,2.10
2019-03-06T17:05:00.335Z,2.20
2019-03-06T17:07:29.073Z,2.33
2019-03-06T17:10:02.772Z,2.00
2019-03-06T17:12:33.213Z,1.87
2019-03-06T17:15:03.665Z,2.20
2019-03-06T17:17:32.910Z,2.27
2019-03-06T17:20:02.334Z,2.13
2019-03-06T17:22:31.747Z,1.87
2019-03-06T17:25:03.792Z,1.83
2019-03-06T17:27:33.122Z,1.97
2019-03-06T17:30:01.985Z,1.90
2019-03-06T17:32:32.266Z,1.90
2019-03-06T17:35:02.574Z,1.97
2019-03-06T17:37:31.848Z,2.20
2019-03-06T17:40:01.327Z,2.30
2019-03-06T17:42:30.135Z,2.27
2019-03-06T17:44:59.537Z,2.10
2019-03-06T17:47:29.805Z,2.43
2019-03-06T17:50:00.126Z,2.20
2019-03-06T17:52:29.639Z,1.83
2019-03-06T17:54:59.023Z,1.83
2019-03-06T17:57:30.874Z,2.20
2019-03-06T18:00:01.775Z,2.80
2019-03-06T18:02:32.154Z,1.97
2019-03-06T18:05:02.479Z,2.47
2019-03-06T18:07:31.850Z,2.80
2019-03-06T18:10:01.773Z,2.17
2019-03-06T18:12:32.149Z,2.20
2019-03-06T18:15:01.454Z,2.30
2019-03-06T18:17:30.734Z,2.10
2019-03-06T18:20:00.022Z,2.27
2019-03-06T18:22:32.976Z,2.40
2019-03-06T18:25:03.266Z,2.63
2019-03-06T18:27:34.678Z,2.20
2019-03-06T18:30:05.173Z,2.20
2019-03-06T18:32:33.999Z,2.60
2019-03-06T18:35:03.735Z,2.10
2019-03-06T18:37:34.060Z,2.50
2019-03-06T18:40:03.482Z,2.17
2019-03-06T18:42:32.850Z,2.53
2019-03-06T18:45:03.121Z,2.37
2019-03-06T18:47:34.718Z,2.53
2019-03-06T18:50:05.167Z,2.70
2019-03-06T18:52:33.928Z,3.17
2019-03-06T18:55:06.191Z,2.80
2019-03-06T18:57:35.438Z,3.10
2019-03-06T19:00:12.757Z,2.50
2019-03-06T19:02:42.060Z,3.23
2019-03-06T19:05:11.750Z,3.00
2019-03-06T19:07:43.401Z,3.03
2019-03-06T19:10:15.332Z,2.57
2019-03-06T19:12:47.164Z,2.83
2019-03-06T19:15:19.149Z,2.33
2019-03-06T19:17:49.650Z,3.23
2019-03-06T19:20:20.457Z,2.47
2019-03-06T19:22:53.482Z,2.70
2019-03-06T19:25:23.825Z,2.70
2019-03-06T19:27:54.159Z,2.80
2019-03-06T19:30:24.873Z,2.60
2019-03-06T19:32:56.015Z,2.93
2019-03-06T19:35:28.112Z,2.83
2019-03-06T19:37:58.576Z,2.73
2019-03-06T19:40:29.070Z,2.30
2019-03-06T19:42:59.344Z,2.50
2019-03-06T19:45:29.614Z,3.20
2019-03-06T19:47:59.044Z,2.77
2019-03-06T19:50:30.366Z,2.93
2019-03-06T19:52:59.599Z,2.70
2019-03-06T19:55:29.971Z,2.50
2019-03-06T19:58:01.548Z,2.57
2019-03-06T20:00:33.200Z,2.80
2019-03-06T20:03:02.982Z,2.40
2019-03-06T20:05:41.077Z,3.00
2019-03-06T20:08:12.915Z,2.70
2019-03-06T20:10:43.540Z,2.90
2019-03-06T20:13:13.491Z,3.20
2019-03-06T20:15:43.328Z,2.87
2019-03-06T20:18:12.625Z,2.70
2019-03-06T20:20:42.827Z,2.90
2019-03-06T20:23:12.101Z,3.17
2019-03-06T20:25:44.247Z,3.30
2019-03-06T20:28:13.510Z,3.53
2019-03-06T20:30:43.407Z,3.80
2019-03-06T20:33:15.286Z,4.00
2019-03-06T20:35:44.665Z,4.53
2019-03-06T20:38:14.952Z,4.90
2019-03-06T20:40:44.259Z,4.17
2019-03-06T20:43:13.596Z,4.00
2019-03-06T20:45:42.900Z,3.60
2019-03-06T20:48:14.474Z,3.60
2019-03-06T20:50:44.871Z,3.40
2019-03-06T20:53:15.625Z,3.43
2019-03-06T20:55:46.791Z,3.43
2019-03-06T20:58:17.045Z,4.20
2019-03-06T21:00:49.801Z,3.63
2019-03-06T21:03:20.046Z,3.43
2019-03-06T21:05:50.828Z,4.23
2019-03-06T21:08:20.447Z,4.00
2019-03-06T21:10:49.711Z,4.07
2019-03-06T21:13:18.440Z,3.77
2019-03-06T21:15:48.653Z,3.47
2019-03-06T21:18:18.961Z,3.10
2019-03-06T21:20:49.257Z,3.90
2019-03-06T21:23:18.636Z,3.70
2019-03-06T21:25:49.037Z,3.93
2019-03-06T21:28:19.308Z,3.47
2019-03-06T21:30:49.732Z,3.57
2019-03-06T21:33:21.849Z,3.60
2019-03-06T21:35:52.876Z,3.93
2019-03-06T21:38:23.217Z,3.80
2019-03-06T21:40:53.523Z,3.80
2019-03-06T21:43:24.267Z,3.63
2019-03-06T21:45:53.546Z,3.83
2019-03-06T21:48:26.062Z,3.27
2019-03-06T21:50:58.339Z,3.60
2019-03-06T21:53:28.595Z,3.33
2019-03-06T21:56:01.720Z,3.60
2019-03-06T21:58:31.920Z,3.97
2019-03-06T22:01:01.276Z,4.10
2019-03-06T22:03:31.797Z,3.17
2019-03-06T22:06:02.890Z,3.40
2019-03-06T22:08:33.692Z,3.73
2019-03-06T22:11:05.646Z,2.97
2019-03-06T22:13:34.918Z,3.57
2019-03-06T22:16:06.387Z,3.73
2019-03-06T22:18:36.590Z,3.73
2019-03-06T22:21:06.953Z,2.87
2019-03-06T22:23:36.246Z,3.27
2019-03-06T22:26:06.964Z,3.33
2019-03-06T22:28:36.208Z,3.47
2019-03-06T22:31:06.513Z,3.30
2019-03-06T22:33:38.005Z,3.20
2019-03-06T22:36:08.241Z,3.60
2019-03-06T22:38:38.788Z,2.93
2019-03-06T22:41:08.113Z,3.33
2019-03-06T22:43:38.768Z,3.57
2019-03-06T22:46:08.976Z,3.37
2019-03-06T22:48:41.008Z,3.50
2019-03-06T22:51:11.238Z,2.93
2019-03-06T22:53:40.549Z,3.37
2019-03-06T22:56:10.825Z,3.77
2019-03-06T22:58:40.973Z,3.37
2019-03-06T23:01:16.427Z,3.60
2019-03-06T23:03:46.715Z,2.90
2019-03-06T23:06:17.047Z,3.40
2019-03-06T23:08:46.355Z,3.13
2019-03-06T23:11:16.789Z,3.50
2019-03-06T23:13:47.023Z,3.80
2019-03-06T23:16:16.357Z,3.30
2019-03-06T23:18:45.671Z,3.10
2019-03-06T23:21:15.945Z,3.43
2019-03-06T23:23:45.971Z,2.87
2019-03-06T23:26:16.476Z,3.87
2019-03-06T23:28:46.732Z,3.33
2019-03-06T23:31:16.344Z,3.70
2019-03-06T23:33:46.664Z,3.13
2019-03-06T23:36:17.173Z,3.17
2019-03-06T23:38:48.625Z,3.00
2019-03-06T23:41:17.906Z,3.17
2019-03-06T23:43:47.917Z,3.00
2019-03-06T23:46:18.180Z,2.93
2019-03-06T23:48:48.684Z,3.00
2019-03-06T23:51:20.556Z,3.17
2019-03-06T23:53:51.720Z,3.40
2019-03-06T23:56:22.007Z,3.00
2019-03-06T23:58:52.327Z,3.93
